createdAt,value
2022-11-24T05:00:59.902Z,98160.47
2022-11-24T05:05:11.451Z,98178.66
2022-11-24T05:09:32.514Z,98174.94
2022-11-24T05:13:53.476Z,98189.38
2022-11-24T05:18:07.052Z,98191.31
2022-11-24T05:22:18.561Z,98201.38
2022-11-24T05:26:30.137Z,98209.34
2022-11-24T05:30:42.335Z,98197.50
2022-11-24T05:34:54.584Z,98211.75
2022-11-24T05:39:06.100Z,98216.47
2022-11-24T05:43:17.957Z,98216.63
2022-11-24T05:47:29.461Z,98209.03
2022-11-24T05:51:41.162Z,98218.28
2022-11-24T05:55:52.683Z,98223.16
2022-11-24T06:00:07.385Z,98229.66
2022-11-24T06:04:23.878Z,98221.53
2022-11-24T06:08:35.367Z,98239.91
2022-11-24T06:12:46.931Z,98239.72
2022-11-24T06:16:58.567Z,98239.41
2022-11-24T06:21:11.760Z,98245.91
2022-11-24T06:25:23.716Z,98247.53
2022-11-24T06:29:35.209Z,98244.59
2022-11-24T06:33:47.632Z,98255.81
2022-11-24T06:37:59.204Z,98252.41
2022-11-24T06:42:10.758Z,98258.88
2022-11-24T06:46:22.686Z,98265.69
2022-11-24T06:50:34.237Z,98271.56
2022-11-24T06:54:45.730Z,98274.47
2022-11-24T06:58:57.205Z,98274.16
2022-11-24T07:03:15.473Z,98281.63
2022-11-24T07:07:27.115Z,98290.22
2022-11-24T07:11:39.730Z,98297.53
2022-11-24T07:15:51.264Z,98314.13
2022-11-24T07:20:03.236Z,98331.47
2022-11-24T07:24:14.844Z,98337.63
2022-11-24T07:28:26.391Z,98335.38
2022-11-24T07:32:38.000Z,98356.00
2022-11-24T07:36:50.099Z,98366.19
2022-11-24T07:41:08.322Z,98372.28
2022-11-24T07:45:20.007Z,98373.88
2022-11-24T07:49:31.646Z,98388.97
2022-11-24T07:53:43.562Z,98393.56
2022-11-24T07:57:55.070Z,98401.22
2022-11-24T08:02:06.687Z,98406.22
2022-11-24T08:06:32.294Z,98410.66
2022-11-24T08:10:47.672Z,98403.19
2022-11-24T08:14:59.198Z,98408.06
2022-11-24T08:19:11.960Z,98416.72
2022-11-24T08:23:23.438Z,98424.38
2022-11-24T08:27:34.991Z,98424.38
2022-11-24T08:31:46.642Z,98435.78
2022-11-24T08:36:06.733Z,98435.47
2022-11-24T08:40:18.247Z,98443.94
2022-11-24T08:44:29.821Z,98441.78
2022-11-24T08:48:41.681Z,98454.47
2022-11-24T08:52:53.747Z,98469.00
2022-11-24T08:57:05.267Z,98465.75
2022-11-24T09:01:17.763Z,98462.81
2022-11-24T09:05:51.101Z,98461.22
2022-11-24T09:10:00.927Z,98483.97
2022-11-24T09:14:12.444Z,98481.41
2022-11-24T09:18:27.580Z,98491.97
2022-11-24T09:22:43.037Z,98500.09
2022-11-24T09:26:55.604Z,98491.50
2022-11-24T09:31:13.012Z,98509.03
2022-11-24T09:35:25.021Z,98511.50
2022-11-24T09:39:36.808Z,98516.81
2022-11-24T09:44:08.675Z,98522.34
2022-11-24T09:48:30.477Z,98528.72
2022-11-24T09:53:03.454Z,98531.94
2022-11-24T09:57:17.680Z,98532.44
2022-11-24T10:01:37.513Z,98536.19
2022-11-24T10:05:51.091Z,98536.50
2022-11-24T10:10:25.237Z,98541.88
2022-11-24T10:14:55.972Z,98549.91
2022-11-24T10:19:22.306Z,98551.38
2022-11-24T10:23:43.806Z,98552.69
2022-11-24T10:28:03.115Z,98554.00
2022-11-24T10:32:24.115Z,98551.75
2022-11-24T10:36:56.889Z,98553.03
2022-11-24T10:41:16.528Z,98556.97
2022-11-24T10:45:28.614Z,98569.66
2022-11-24T10:49:40.142Z,98567.22
2022-11-24T10:54:08.150Z,98566.75
2022-11-24T10:58:35.836Z,98568.34
2022-11-24T11:02:50.240Z,98578.75
2022-11-24T11:07:28.128Z,98577.16
2022-11-24T11:11:40.070Z,98570.47
2022-11-24T11:15:51.631Z,98575.19
2022-11-24T11:20:06.975Z,98588.06
2022-11-24T11:24:18.619Z,98574.22
2022-11-24T11:28:30.173Z,98574.53
2022-11-24T11:37:33.181Z,98584.50
2022-11-24T11:41:49.516Z,98578.13
2022-11-24T11:46:12.108Z,98580.66
2022-11-24T11:50:31.731Z,98570.22
2022-11-24T11:55:02.301Z,98569.56
2022-11-24T11:59:36.337Z,98576.03
2022-11-24T12:04:25.055Z,98574.00
2022-11-24T12:09:20.727Z,98586.38
2022-11-24T12:13:51.938Z,98585.91
2022-11-24T12:18:55.394Z,98601.13
2022-11-24T12:23:11.361Z,98595.59
2022-11-24T12:27:48.524Z,98595.47
2022-11-24T12:32:11.728Z,98598.59
2022-11-24T12:36:49.125Z,98599.25
2022-11-24T12:41:40.996Z,98605.13
2022-11-24T12:46:12.518Z,98604.31
2022-11-24T12:50:30.557Z,98597.78
2022-11-24T12:54:42.103Z,98603.34
2022-11-24T12:59:20.801Z,98596.34
2022-11-24T13:04:01.693Z,98604.31
2022-11-24T13:08:14.158Z,98594.69
2022-11-24T13:12:25.709Z,98590.94
2022-11-24T13:21:51.709Z,98598.28
2022-11-24T13:26:30.685Z,98590.81
2022-11-24T13:30:45.182Z,98577.41
2022-11-24T13:35:03.814Z,98589.75
2022-11-24T13:39:21.097Z,98589.97
2022-11-24T13:43:32.657Z,98591.09
2022-11-24T13:47:47.419Z,98592.25
2022-11-24T13:52:37.189Z,98585.22
2022-11-24T13:56:48.676Z,98595.16
2022-11-24T14:01:19.236Z,98591.41
2022-11-24T14:05:38.246Z,98590.25
2022-11-24T14:09:53.266Z,98586.03
2022-11-24T14:14:20.840Z,98578.72
2022-11-24T14:18:34.182Z,98585.56
2022-11-24T14:22:45.772Z,98580.81
2022-11-24T14:26:57.336Z,98567.09
2022-11-24T14:31:18.127Z,98564.69
2022-11-24T14:35:35.228Z,98563.47
2022-11-24T14:39:46.978Z,98560.38
2022-11-24T14:44:20.482Z,98565.16
2022-11-24T14:48:38.287Z,98560.94
2022-11-24T14:52:54.787Z,98560.31
2022-11-24T14:57:06.754Z,98565.41
2022-11-24T15:01:28.291Z,98572.75
2022-11-24T15:05:58.523Z,98577.13
2022-11-24T15:10:36.184Z,98576.34
2022-11-24T15:14:54.479Z,98569.34
2022-11-24T15:19:07.915Z,98579.78
2022-11-24T15:23:30.308Z,98581.38
2022-11-24T15:27:41.783Z,98581.84
2022-11-24T15:31:53.443Z,98581.34
2022-11-24T15:36:05.256Z,98574.16
2022-11-24T15:40:17.259Z,98578.31
2022-11-24T15:44:29.497Z,98583.22
2022-11-24T15:48:41.031Z,98585.94
2022-11-24T15:52:52.766Z,98592.91
2022-11-24T15:57:04.281Z,98599.03
2022-11-24T16:01:16.113Z,98597.19
2022-11-24T16:05:27.915Z,98596.00
2022-11-24T16:09:39.448Z,98604.06
2022-11-24T16:13:53.963Z,98598.47
2022-11-24T16:18:06.452Z,98600.38
2022-11-24T16:22:18.007Z,98613.72
2022-11-24T16:26:29.541Z,98620.66
2022-11-24T16:30:41.079Z,98609.75
2022-11-24T16:34:52.737Z,98611.47
2022-11-24T16:39:04.254Z,98605.22
2022-11-24T16:43:15.842Z,98606.59
2022-11-24T16:47:27.529Z,98620.75
2022-11-24T16:51:39.102Z,98625.44
2022-11-24T16:55:57.678Z,98626.84
2022-11-24T17:00:10.049Z,98623.03
2022-11-24T17:04:21.564Z,98626.22
2022-11-24T17:08:39.247Z,98623.41
2022-11-24T17:12:50.762Z,98625.53
2022-11-24T17:17:04.975Z,98617.75
2022-11-24T17:21:21.763Z,98624.00
2022-11-24T17:25:33.297Z,98636.34
2022-11-24T17:29:44.882Z,98635.53
2022-11-24T17:33:58.344Z,98629.75
2022-11-24T17:38:09.956Z,98634.06
2022-11-24T17:42:21.509Z,98630.47
2022-11-24T17:46:33.379Z,98638.69
2022-11-24T17:50:44.919Z,98625.88
2022-11-24T17:54:57.532Z,98627.66
2022-11-24T17:59:09.375Z,98614.38
2022-11-24T18:03:21.145Z,98616.81
2022-11-24T18:07:36.068Z,98622.09
2022-11-24T18:11:47.888Z,98618.69
2022-11-24T18:16:04.354Z,98612.06
2022-11-24T18:20:15.898Z,98616.28
2022-11-24T18:24:27.418Z,98612.06
2022-11-24T18:28:38.932Z,98600.38
2022-11-24T18:32:50.468Z,98604.25
2022-11-24T18:37:01.991Z,98606.53
2022-11-24T18:41:14.820Z,98612.88
2022-11-24T18:45:26.507Z,98614.41
2022-11-24T18:49:38.085Z,98609.19
2022-11-24T18:53:53.306Z,98618.75
2022-11-24T18:58:04.891Z,98613.44
2022-11-24T19:02:16.492Z,98615.25
2022-11-24T19:06:33.388Z,98624.41
2022-11-24T19:10:45.250Z,98620.75
2022-11-24T19:14:56.753Z,98623.63
2022-11-24T19:19:10.189Z,98630.03
2022-11-24T19:23:22.326Z,98625.41
2022-11-24T19:27:34.176Z,98624.59
2022-11-24T19:31:46.175Z,98621.59
2022-11-24T19:36:06.519Z,98629.53
2022-11-24T19:40:18.509Z,98621.06
2022-11-24T19:44:30.030Z,98619.72
2022-11-24T19:48:47.112Z,98620.97
2022-11-24T19:52:58.627Z,98624.66
2022-11-24T19:57:10.181Z,98621.38
2022-11-24T20:01:29.854Z,98616.84
2022-11-24T20:05:41.520Z,98622.44
2022-11-24T20:09:53.132Z,98620.13
2022-11-24T20:14:06.411Z,98613.19
2022-11-24T20:18:17.979Z,98617.94
2022-11-24T20:22:29.694Z,98618.06
2022-11-24T20:26:45.118Z,98619.94
2022-11-24T20:31:01.481Z,98632.72
2022-11-24T20:35:18.002Z,98623.44
2022-11-24T20:39:29.986Z,98625.38
2022-11-24T20:43:42.794Z,98621.25
2022-11-24T20:47:54.376Z,98620.25
2022-11-24T21:27:54.357Z,98608.75
2022-11-24T21:38:19.684Z,98610.75
2022-11-24T21:42:31.191Z,98608.19
2022-11-24T21:46:48.054Z,98611.97
2022-11-24T21:51:02.965Z,98615.19
2022-11-24T21:55:14.489Z,98615.06
2022-11-24T21:59:25.955Z,98595.63
2022-11-24T22:03:37.446Z,98615.19
2022-11-24T22:07:50.266Z,98609.97
2022-11-24T22:12:01.811Z,98608.63
2022-11-24T22:16:16.668Z,98613.56
2022-11-24T22:20:28.303Z,98614.56
2022-11-24T22:24:40.030Z,98612.78
2022-11-24T22:28:53.707Z,98612.84
